Tiempo atmosférico en la estación meteorológica de Pamplona Aeropuerto, Navarra (459 m.)



Fecha
DESCASC
Temp. máxima en grados centígrados (hora)
DESCASC
Temp. mínima en grados centígrados (hora)
DESCASC
Temp. media en grados centígrados
DESCASC
Racha de viento máxima en m/sg (hora)
DESCASC
Velocidad máxima media en intervalos de 10 minutos(hora)
DESCASC
Precipitaciones diarias en mm
DESCASC
Precipitaciones de 00:00 a 06:00 en mm
DESCASC
Precipitaciones de 06:00 a 12:00 en mm
DESCASC
Precipitaciones de 12:00 a 18:00 en mm
DESCASC
Precipitaciones de 18:00 a 24:00 en mm
DESCASC
19-05-2019 14 (15:00) 6.9 (01:00) 10.5 12.5 (14:50) 8.61 (15:30) 15.3 4.7 10.6 0 0
18-05-2019 12.5 (14:40) 4.1 (07:30) 8.3 11.39 (15:20) 8.06 (15:20) 2.8 0 0 0 2.8
17-05-2019 11.7 (13:40) 8.2 (06:30) 9.9 12.5 (19:00) 8.33 (12:10) 32 21.9 9.5 0.6 0
16-05-2019 25 (17:00) 6.7 (00:00) 15.8 15.28 (18:20) -- (--) -- 0 0 -- 6.8
15-05-2019 25 (15:40) 5.1 (00:00) 15 12.5 (12:10) 9.17 (12:20) 0 0 0 0 0
14-05-2019 24.8 (15:30) 3.5 (00:00) 14.1 12.78 (19:30) 9.17 (19:30) 0 0 0 0 0
13-05-2019 20.1 (15:10) 7 (00:00) 13.6 15.28 (13:40) 10.28 (14:40) -- 0 -- 0 0
12-05-2019 -- (--) -- (--) -- -- (--) -- (--) -- -- -- 0 0
11-05-2019 18.1 (15:50) 8.6 (00:00) 13.4 14.44 (18:20) 9.17 (19:00) 0 0 0 0 0
10-05-2019 25.5 (16:50) 10.7 (00:00) 18.1 11.39 (21:50) 7.5 (21:50) 11 10.2 0.8 0 0
09-05-2019 20.3 (14:50) 5.7 (00:00) 13 12.5 (14:40) 6.94 (14:40) 5.8 0 0 0.2 5.6
08-05-2019 22.1 (18:30) 13.9 (00:00) 18 18.06 (19:40) 11.67 (19:40) 0.1 0 0 0.1 0
07-05-2019 24.6 (16:20) 4.2 (00:00) 14.4 8.33 (15:40) 5.83 (16:00) 0 0 0 0 0
06-05-2019 22.1 (17:20) -0.1 (00:00) 11 6.67 (18:30) 4.72 (01:00) 0 0 0 0 0
05-05-2019 12.9 (15:50) 1.9 (00:00) 7.4 14.44 (01:50) 10.28 (01:50) 0.2 0.2 0 0 0
04-05-2019 16 (16:30) 6 (00:00) 11 13.89 (19:20) 8.89 (19:20) 0.2 0 0 0 0.2
03-05-2019 13.6 (15:30) 6.6 (00:00) 10.1 13.33 (19:00) 9.17 (18:50) 1 0 0.9 0.1 0
02-05-2019 15.3 (14:50) 7.8 (07:10) 11.6 12.5 (19:40) 8.89 (20:00) 0 0 0 0 0
01-05-2019 22.6 (15:10) 3.3 (00:00) 13 13.89 (19:10) 9.44 (19:10) 0 0 0 0 0
30-04-2019 21 (15:20) 4.5 (00:00) 12.8 11.39 (17:40) 8.61 (16:50) 0 0 0 0 0
29-04-2019 21.3 (15:20) 3.6 (00:00) 12.4 9.72 (19:10) 6.67 (19:00) 0 0 0 0 0
28-04-2019 17.7 (15:20) 5.8 (00:00) 11.8 11.67 (18:40) 8.89 (19:50) 0 0 0 0 0
27-04-2019 16.9 (14:40) 2.9 (00:00) 9.9 12.78 (18:20) 8.61 (18:50) 0 0 0 0 0
26-04-2019 15.3 (15:50) 6.7 (00:00) 11 11.39 (14:20) 8.61 (14:30) 0.2 0.1 0.1 0 0
25-04-2019 16.9 (17:40) 6.1 (00:00) 11.5 13.89 (12:00) 8.89 (12:00) 4.5 4.5 0 0 0
24-04-2019 12.1 (16:50) 5.4 (00:00) 8.8 21.11 (20:20) 14.17 (19:40) 10.2 0 0.4 0.5 9.3
23-04-2019 19.7 (12:50) 8.9 (00:00) 14.3 12.5 (14:10) 7.5 (13:00) 4.8 0 0 2.6 2.2

Gráficas

Temp. máximas Temp. mínimas Temp. medias Precipitaciones Rachas de viento máximas Velocidades máximas media en intervalos de 10 minutos

Datos horarios

Fecha y hora oficial Temperatura (ºC) Velocidad del viento (km/h) Dirección del viento Racha (km/h) Dirección de racha Precipitación (mm) Presión (hPa) Tendencia (hPa) Humedad (%)
2019-05-22 23:00:00 14.8 5 Nordeste 9 Este 0 965.2 1.4 74
2019-05-22 22:00:00 16.5 5 Nordeste 21 Nordeste 0 964.6 1 69
2019-05-22 21:00:00 19.1 13 Nordeste 24 Norte 0 964.2 0.5 59
2019-05-22 20:00:00 21.2 14 Nordeste 24 Norte 0 963.8 -0.3 50
2019-05-22 19:00:00 22.7 14 Norte 28 Noroeste 0 963.6 -0.9 45
2019-05-22 18:00:00 23.6 6 Norte 17 Nordeste 0 963.7 -1.1 31
2019-05-22 17:00:00 24.2 10 Noroeste 18 Noroeste 0 964.1 -1.2 31
2019-05-22 16:00:00 22.9 7 Norte 17 Oeste 0 964.5 -1.1 36
2019-05-22 15:00:00 22.7 7 Oeste 17 Oeste 0 964.8 -1.2 41
2019-05-22 14:00:00 21.4 5 Norte 15 Oeste 0 965.3 -0.9 49
2019-05-22 13:00:00 20.8 5 Sudoeste 17 Oeste 0 965.6 -0.8 50
2019-05-22 12:00:00 19.3 6 Oeste 15 Noroeste 0 966 -0.3 59
2019-05-22 11:00:00 16.9 4 Noroeste 13 Norte 0 966.2 0 64
2019-05-22 10:00:00 15 6 Norte 11 Norte 0 966.4 0.7 72
2019-05-22 09:00:00 12.8 2 Este 5 Este 0 966.3 0.7 77
2019-05-22 08:00:00 9 5 Sudeste 9 Sudeste 0 966.2 0.7 87
2019-05-22 07:00:00 6.3 5 Sudeste -- -- 0 965.7 0.1 93
2019-05-22 06:00:00 6.6 4 Sudeste 11 Oeste 0 965.6 -0.2 92
2019-05-22 05:00:00 7.5 7 Sudoeste 9 Oeste 0 965.5 -0.3 91
2019-05-22 04:00:00 9 5 Oeste 22 Noroeste 0 965.6 0 87
2019-05-22 03:00:00 9.9 17 Noroeste 24 Noroeste 0 965.8 0 87
2019-05-22 02:00:00 10.1 14 Noroeste 24 Noroeste 0 965.8 -0.1 88
2019-05-22 01:00:00 9.9 13 Oeste 26 Noroeste 0 965.6 0.2 88
2019-05-22 00:00:00 10.8 12 Noroeste 17 Noroeste 0 965.8 1.2 85
2019-05-21 23:00:00 11.9 15 Noroeste 26 Norte 0 965.9 1.6 81
2019-05-21 22:00:00 13.3 18 Noroeste 26 Noroeste 0 965.4 1.4 74
2019-05-21 21:00:00 15.5 21 Noroeste 30 Norte 0 964.6 0.7 62
2019-05-21 20:00:00 16.7 19 Nordeste 32 Norte 0 964.3 0.6 53
2019-05-21 19:00:00 17.8 18 Norte 39 Noroeste 0 964 0.2 53
2019-05-21 18:00:00 18.7 27 Norte 39 Norte 0 963.9 0.1 51
2019-05-21 17:00:00 19.5 27 Noroeste 39 Norte 0 963.7 -0.1 50
2019-05-21 16:00:00 20.1 28 Noroeste 41 Noroeste 0 963.8 -0.2 50
2019-05-21 15:00:00 19.5 29 Noroeste 41 Noroeste 0 963.8 -0.3 51
2019-05-21 14:00:00 19.4 28 Noroeste 41 Noroeste 0 963.8 -0.4 51
2019-05-21 13:00:00 18.9 22 Noroeste 33 Noroeste 0 964 -0.4 54
2019-05-21 12:00:00 17.3 13 Oeste 22 Norte 0 964.1 -0.2 59
2019-05-21 11:00:00 15.4 12 Noroeste 22 Noroeste 0 964.2 0.1 64
2019-05-21 10:00:00 14.5 12 Noroeste 24 Oeste 0 964.4 0.5 68
2019-05-21 09:00:00 11.3 4 Noroeste 8 Norte 0 964.3 0.8 78
2019-05-21 08:00:00 7.8 0 Calma 8 Sudeste 0 964.1 0.9 87
2019-05-21 07:00:00 4.1 5 Sudeste 9 Sudeste 0 963.9 0.8 94
2019-05-21 06:00:00 4.6 4 Sudeste 8 Sudoeste 0 963.5 0.2 93
2019-05-21 05:00:00 5.3 6 Sudoeste 9 Sudoeste 0 963.2 -0.5 94
2019-05-21 04:00:00 5.9 5 Oeste 9 Oeste 0 963.1 -0.4 92
2019-05-21 03:00:00 7.2 3 Noroeste 13 Noroeste 0 963.3 -0.1 88
2019-05-21 02:00:00 7.6 11 Noroeste 18 Norte 0 963.7 0.5 89
2019-05-21 01:00:00 8.4 16 Noroeste 21 Norte 0 963.5 1 88
2019-05-21 00:00:00 8.9 13 Noroeste 18 Noroeste 0 963.4 1.6 86
2019-05-20 23:00:00 9.9 11 Noroeste 24 Norte 0 963.2 1.8 80
2019-05-20 22:00:00 11.4 18 Norte 26 Norte 0 962.5 1.3 71
2019-05-20 21:00:00 13 16 Norte 30 Norte 0 961.8 0.8 65
2019-05-20 20:00:00 14.9 19 Norte 30 Norte 0 961.4 0.3 56
2019-05-20 19:00:00 16.1 19 Norte 33 Nordeste 0 961.2 -0.2 50
2019-05-20 18:00:00 17.1 18 Norte 30 Norte 0 961 -0.8 48
2019-05-20 17:00:00 17.9 21 Noroeste 33 Norte 0 961.1 -1 48
2019-05-20 16:00:00 17.6 24 Noroeste 32 Noroeste 0 961.4 -0.9 51
2019-05-20 15:00:00 15.3 17 Noroeste 26 Noroeste 0 961.8 -0.5 57
2019-05-20 14:00:00 14.4 14 Norte 28 Nordeste 0 962.1 -0.4 57
2019-05-20 13:00:00 13.4 16 Norte 30 Norte 0 962.3 -0.2 63
2019-05-20 12:00:00 12.6 14 Nordeste 26 Noroeste 0 962.3 0.2 66
2019-05-20 11:00:00 12.2 11 Noroeste 21 Noroeste 0 962.5 0.6 72
2019-05-20 10:00:00 11.3 12 Noroeste 18 Noroeste 0 962.5 0.8 74
2019-05-20 09:00:00 9 3 Norte 8 Nordeste 0 962.1 0.8 82
2019-05-20 08:00:00 7.3 3 Sur 11 Sudeste 0 961.9 0.5 89
2019-05-20 07:00:00 4.8 4 Sudeste 8 Sur 0 961.7 0.1 93
2019-05-20 06:00:00 5.1 6 Sudeste 9 Sudeste 0 961.3 -0.4 91
2019-05-20 05:00:00 5.7 3 Nordeste 11 Oeste 0 961.4 -0.8 90
2019-05-20 04:00:00 6.9 5 Noroeste 13 Noroeste 0 961.6 -0.9 88
2019-05-20 03:00:00 6.7 9 Noroeste -- -- -- 961.7 -0.6 91
2019-05-20 02:00:00 7.5 10 Noroeste 15 Noroeste 0 962.2 -0.1 89
2019-05-20 01:00:00 7.6 2 Noroeste 17 Norte 0 962.5 0.8 90
2019-05-20 00:00:00 8.1 11 Norte 21 Noroeste 0 962.3 1.1 88
2019-05-19 23:00:00 9.1 14 Noroeste 22 Noroeste 0 962.3 1.5 86
2019-05-19 22:00:00 9.2 12 Noroeste 32 Noroeste 0 961.7 0.9 90
2019-05-19 21:00:00 9.9 18 Noroeste 35 Norte 0 961.2 0.6 85
2019-05-19 20:00:00 11.1 22 Norte 37 Norte 0 960.8 0.2 75
2019-05-19 19:00:00 10.7 18 Noroeste 33 Noroeste 0 960.8 0.4 79
2019-05-19 18:00:00 12 22 Noroeste 37 Noroeste 0 960.6 0.6 73
2019-05-19 17:00:00 12.3 23 Noroeste 41 Noroeste 0 960.6 0.7 74
2019-05-19 16:00:00 12.2 26 Noroeste 45 Noroeste 0 960.4 0.9 73
2019-05-19 15:00:00 13.8 26 Noroeste 45 Noroeste 0 960 0.7 75
2019-05-19 14:00:00 10.5 16 Norte 32 Norte 0 959.9 0.9 89
2019-05-19 13:00:00 10.4 18 Noroeste 26 Noroeste 0 959.5 0.6 84
2019-05-19 12:00:00 10.1 10 Noroeste 21 Noroeste 0 959.3 0.8 90
2019-05-19 11:00:00 10.5 14 Oeste 26 Oeste 0.6 959 0.9 88
2019-05-19 10:00:00 8.8 6 Sudoeste 9 Sudoeste 2.1 958.9 1.1 94
2019-05-19 09:00:00 7.7 6 Sur 17 Noroeste 3.1 958.5 0.7 95
2019-05-19 08:00:00 7.6 5 Sudeste 9 Sur 1.5 958.1 0.3 95
2019-05-19 07:00:00 7.5 5 Sur 11 Este 3.3 957.8 0 96
2019-05-19 06:00:00 7.5 9 Nordeste 15 Nordeste 1.7 957.8 -0.3 96
2019-05-19 05:00:00 7.5 7 Este 11 Este 0.1 957.8 -0.8 94
2019-05-19 04:00:00 7.5 2 Este 9 Sudeste 0.1 957.8 -1.1 95
2019-05-19 03:00:00 7.4 7 Sudeste 11 Sur 0.6 958.1 -0.9 95
2019-05-19 02:00:00 7.2 6 Sudeste 13 Sudeste 0.8 958.6 -0.7 95
2019-05-19 01:00:00 7 8 Sudeste 9 Sudeste 1.4 958.9 -0.2 95
2019-05-19 00:00:00 7.1 6 Sudeste 9 Sudeste 1.1 959 -0.1 94
2019-05-18 23:00:00 7.5 3 Sur 8 Sur 0.6 959.3 0.8 91
2019-05-18 22:00:00 7.4 3 Norte 18 Noroeste 0.9 959.1 0.7 91
2019-05-18 21:00:00 8 10 Norte 24 Noroeste 0 959.1 1.2 88
2019-05-18 20:00:00 8.4 12 Norte 22 Norte 0.2 958.5 0.9 86
2019-05-18 19:00:00 9.7 18 Noroeste 28 Noroeste 0 958.4 0.7 72
2019-05-18 18:00:00 10.7 19 Norte 37 Noroeste 0 957.9 0.5 71
2019-05-18 17:00:00 11.4 22 Noroeste 35 Norte 0 957.6 0.3 64
2019-05-18 16:00:00 11 25 Noroeste 41 Noroeste 0 957.7 0.3 65
2019-05-18 15:00:00 11.6 26 Noroeste 37 Norte 0 957.4 0 67
2019-05-18 14:00:00 11.5 17 Noroeste 32 Noroeste 0 957.3 0 63
2019-05-18 13:00:00 10.8 14 Norte 22 Norte 0 957.4 -0.1 66
2019-05-18 12:00:00 11 8 Norte 17 Noroeste 0 957.4 0.2 64
2019-05-18 11:00:00 10.7 4 Sudeste 9 Sudeste 0 957.3 0.3 64
2019-05-18 10:00:00 8.5 4 Nordeste 8 Norte 0 957.5 0.5 70
2019-05-18 09:00:00 9 4 Este 9 Sudeste 0 957.2 0.1 69
2019-05-18 08:00:00 6.8 5 Sur 13 Sudoeste 0 957 -0.3 84
2019-05-18 07:00:00 4.4 4 Sudeste 11 Sudeste 0 957 -0.6 90
2019-05-18 06:00:00 5.7 8 Sudeste 13 Noroeste 0 957.1 -0.8 85
2019-05-18 05:00:00 7 7 Noroeste 21 Oeste 0 957.3 -0.8 78
2019-05-18 04:00:00 8 9 Noroeste 24 Noroeste 0 957.6 -0.7 78
2019-05-18 03:00:00 8.1 13 Oeste 18 Oeste 0 957.9 -0.6 80
2019-05-18 02:00:00 7.9 10 Norte 21 Noroeste 0 958.1 -0.5 83
2019-05-18 01:00:00 8.4 12 Noroeste 18 Norte 0 958.3 0.1 81
2019-05-18 00:00:00 8.4 5 Norte -- -- -- 958.5 0.6 82
2019-05-17 23:00:00 8.4 6 Noroeste 13 Noroeste 0 958.6 1.3 83
2019-05-17 22:00:00 8.6 10 Norte 26 Norte 0 958.2 1.4 82
2019-05-17 21:00:00 9.3 20 Noroeste 30 Norte 0 957.9 1.2 79
2019-05-17 20:00:00 10.3 15 Noroeste 42 Norte 0 957.3 0.8 78
2019-05-17 19:00:00 11 28 Noroeste 45 Noroeste 0 956.8 0.4 77
2019-05-17 18:00:00 9.9 26 Noroeste 41 Norte 0.3 956.7 0.7 87
2019-05-17 17:00:00 10.3 18 Noroeste 37 Norte 0.1 956.5 1 87
2019-05-17 16:00:00 9.9 20 Norte 42 Norte 0.1 956.4 1.4 88
2019-05-17 15:00:00 10.7 24 Noroeste 35 Noroeste 0 956 1.8 83
2019-05-17 14:00:00 11.4 17 Noroeste 32 Noroeste 0 955.5 2.6 77
2019-05-17 13:00:00 10.4 17 Norte 42 Noroeste 0.1 955 2.8 85
2019-05-17 12:00:00 9.8 23 Noroeste 39 Noroeste 2.3 954.2 2 91
2019-05-17 11:00:00 10 8 Noroeste 15 Oeste 0.6 952.9 0.8 94
2019-05-17 10:00:00 9.3 6 Oeste 9 Oeste 0.7 952.2 0.4 94
2019-05-17 09:00:00 8.7 4 Sudoeste 8 Sudoeste 1.9 952.2 0.6 95
2019-05-17 08:00:00 8.5 4 Sudoeste 13 Noroeste 1.1 952.1 0.4 94
2019-05-17 07:00:00 8.2 7 Norte 22 Noroeste 2.9 951.8 -0.4 93
2019-05-17 06:00:00 8.4 13 Noroeste 21 Noroeste 3.3 951.6 -1.3 93
2019-05-17 05:00:00 8.5 5 Noroeste 17 Norte 3 951.7 -1.1 94
2019-05-17 04:00:00 8.4 8 Norte 21 Noroeste 2.9 952.2 -0.2 94
2019-05-17 03:00:00 8.5 12 Noroeste 32 Noroeste 6 952.9 -0.5 96
2019-05-17 02:00:00 9.4 18 Noroeste 35 Noroeste 4.3 952.8 -1.6 96
2019-05-17 01:00:00 10.7 19 Norte 32 Norte 2.4 952.4 -2.5 95
2019-05-17 00:00:00 11.2 17 Noroeste 28 Norte 1.2 953.4 -0.8 93
2019-05-16 23:00:00 11.2 15 Norte 30 Norte 2.7 954.4 0 94
2019-05-16 22:00:00 11.6 17 Norte 39 Norte 2.9 954.9 0.6 91
2019-05-16 21:00:00 12.9 19 Norte 37 Norte 0 954.2 1.3 78
2019-05-16 20:00:00 13.3 29 Norte 52 Norte 0 954.4 1.2 77
2019-05-16 19:00:00 14.7 39 Norte 55 Norte 0 954.3 0.2 73
2019-05-16 18:00:00 19.7 35 Norte 45 Norte 0 952.9 -2.3 57
2019-05-16 17:00:00 24.8 10 Oeste 17 Este 0 953.2 -3.2 41
2019-05-16 16:00:00 22.8 9 Nordeste 22 Noroeste 0 954.1 -3.2 41
2019-05-16 15:00:00 21.7 6 Norte -- -- -- 955.2 -2.8 43
2019-05-16 14:00:00 21.3 6 Oeste 22 Norte 0 956.4 -2.5 44
2019-05-16 13:00:00 19.9 9 Norte 15 Nordeste 0 957.3 -2.1 48
2019-05-16 12:00:00 18.1 5 Norte 13 Noroeste 0 958 -1.8 51
2019-05-16 11:00:00 17.3 4 Oeste 13 Sur 0 958.9 -1.3 52
2019-05-16 10:00:00 14.1 3 Este 9 Nordeste 0 959.4 -0.7 58
2019-05-16 09:00:00 12.5 5 Este 9 Este 0 959.8 -0.3 67
2019-05-16 08:00:00 7.8 2 Sur -- -- -- 960.2 0 84
2019-05-16 07:00:00 7.1 0 Calma 8 Este 0 960.1 -0.2 85
2019-05-16 06:00:00 7.3 0 Calma 9 Sur 0 960.1 -0.6 83
2019-05-16 05:00:00 7 2 Este 9 Sudeste 0 960.2 -0.8 82
2019-05-16 04:00:00 7.6 4 Norte 13 Sur 0 960.3 -0.6 78
2019-05-16 03:00:00 8.5 10 Sur 21 Sur 0 960.7 -0.4 74
2019-05-16 02:00:00 10.5 6 Oeste 15 Sudoeste 0 961 -0.1 63
2019-05-16 01:00:00 12 12 Noroeste 17 Norte 0 960.9 0.3 56
2019-05-16 00:00:00 13.4 9 Noroeste 21 Noroeste 0 961.1 0.7 52
2019-05-15 23:00:00 14.6 17 Norte 28 Norte 0 961.1 0.9 53
2019-05-15 22:00:00 15.4 16 Norte 26 Norte 0 960.6 0.4 52
2019-05-15 21:00:00 17.4 17 Norte 32 Norte 0 960.4 0.7 43
2019-05-15 20:00:00 19.2 21 Norte 39 Noroeste 0 960.2 0.7 47
2019-05-15 19:00:00 20.7 27 Norte 39 Noroeste 0 960.2 0.3 42
2019-05-15 18:00:00 22.9 24 Norte 45 Norte 0 959.7 -0.5 38
2019-05-15 17:00:00 23.9 27 Norte 39 Norte 0 959.5 -1 32
2019-05-15 16:00:00 24.5 23 Norte 39 Norte 0 959.9 -1 28
2019-05-15 15:00:00 24.4 28 Norte 41 Noroeste 0 960.2 -0.6 29
2019-05-15 14:00:00 23.6 26 Norte 41 Norte 0 960.5 -0.5 31
2019-05-15 13:00:00 22.9 28 Norte 45 Norte 0 960.9 -0.6 30
2019-05-15 12:00:00 22.3 28 Norte 39 Norte 0 960.8 -1 30
2019-05-15 11:00:00 21 26 Norte 39 Norte 0 961 -0.9 35
2019-05-15 10:00:00 17.1 4 Oeste 9 Sudoeste 0 961.5 -0.1 51
2019-05-15 09:00:00 14.2 3 Sudeste 8 Este 0 961.8 0.3 63
2019-05-15 08:00:00 9.9 3 Oeste 8 Oeste 0 961.9 0.3 79
2019-05-15 07:00:00 5.4 4 Sudeste 8 Sudeste 0 961.6 0 89
2019-05-15 06:00:00 6 5 Sudeste 8 Sudeste 0 961.5 -0.6 86
2019-05-15 05:00:00 6.4 5 Este -- -- -- 961.6 -0.8 86
2019-05-15 04:00:00 7.7 6 Sur 9 Sudeste 0 961.6 -1.2 81
2019-05-15 03:00:00 8.7 5 Sudeste 9 Sur 0 962.1 -1 78
2019-05-15 02:00:00 10.6 6 Sudeste 18 Noroeste 0 962.4 -0.6 70
2019-05-15 01:00:00 12.5 12 Noroeste 18 Noroeste 0 962.8 0 62
2019-05-15 00:00:00 12.8 10 Noroeste 17 Noroeste 0 963.1 0.2 64
2019-05-14 23:00:00 14.3 12 Noroeste 22 Noroeste 0 963 0.2 60
2019-05-14 22:00:00 15.6 16 Norte 35 Norte 0 962.8 0.3 57
2019-05-14 21:00:00 17 27 Norte 45 Norte 0 962.9 0.7 53
2019-05-14 20:00:00 18.7 30 Norte 46 Norte 0 962.8 0.4 50
2019-05-14 19:00:00 20.6 28 Norte 41 Norte 0 962.5 -0.5 44
2019-05-14 18:00:00 22.2 27 Norte 41 Norte 0 962.2 -1.4 41
2019-05-14 17:00:00 23.5 26 Norte 32 Norte 0 962.4 -1.9 36
2019-05-14 16:00:00 23.9 22 Norte 33 Noroeste 0 963 -2.1 32
2019-05-14 15:00:00 24.1 14 Noroeste 26 Noroeste 0 963.6 -2.3 33
2019-05-14 14:00:00 23 9 Oeste -- -- -- 964.3 -2.4 35
2019-05-14 13:00:00 20.6 5 Este 13 Nordeste 0 965.1 -2.2 36
2019-05-14 12:00:00 18.4 4 Oeste 13 Oeste 0 965.9 -1.9 43
2019-05-14 11:00:00 16.3 3 Oeste 11 Oeste 0 966.7 -1.4 50
2019-05-14 10:00:00 13.5 5 Sudoeste 15 Oeste 0 967.3 -0.7 55
2019-05-14 09:00:00 10.4 0 Calma 5 Este 0 967.8 -0.2 65
2019-05-14 08:00:00 7.4 0 Calma 8 Sur 0 968.1 0 80
2019-05-14 07:00:00 3.5 4 Sur 8 Sur 0 968 0 87
2019-05-14 06:00:00 4.6 4 Este 8 Sudeste 0 968 -0.5 84
2019-05-14 05:00:00 5.5 4 Sur 8 Sudoeste 0 968.1 -0.7 81
2019-05-14 04:00:00 7.1 4 Oeste 11 Noroeste 0 968 -1 74
2019-05-14 03:00:00 9.2 9 Noroeste 15 Noroeste 0 968.5 -0.8 63
2019-05-14 02:00:00 9.9 11 Noroeste 17 Noroeste 0 968.8 -0.5 60
2019-05-14 01:00:00 10.3 10 Noroeste 21 Noroeste 0 969 0.2 57
2019-05-14 00:00:00 10.9 14 Noroeste 22 Noroeste 0 969.3 0.7 57
2019-05-13 23:00:00 11.8 17 Norte 33 Norte 0 969.3 1.2 56
2019-05-13 22:00:00 12.9 25 Norte 33 Norte 0 968.8 0.7 53
2019-05-13 21:00:00 14.7 23 Norte 45 Norte 0 968.6 0.4 47
2019-05-13 20:00:00 16 28 Norte 46 Norte 0 968.1 -0.2 42
2019-05-13 19:00:00 17.1 26 Norte 46 Norte 0 968.1 -0.5 38
2019-05-13 18:00:00 18 28 Norte 48 Norte 0 968.2 -0.5 38
2019-05-13 17:00:00 18.9 28 Norte 45 Norte 0 968.3 -0.9 35
2019-05-13 16:00:00 19.5 20 Norte 52 Nordeste 0 968.6 -1.1 28
2019-05-13 15:00:00 19.5 24 Norte 55 Nordeste 0 968.7 -1.4 21
2019-05-13 14:00:00 18.8 37 Norte 55 Nordeste 0 969.2 -1.2 20
2019-05-13 13:00:00 18.1 32 Norte 50 Norte 0 969.7 -1.1 22
2019-05-13 12:00:00 17 34 Norte 50 Nordeste 0 970.1 -1.1 26
2019-05-13 11:00:00 16.1 29 Norte -- -- -- 970.4 -0.7 33
2019-05-13 10:00:00 14.6 27 Norte 35 Norte 0 970.8 -0.2 43
2019-05-13 09:00:00 12.7 20 Norte 32 Norte 0 971.2 -0.1 50
2019-05-13 08:00:00 9.3 14 Noroeste 21 Noroeste 0 971.1 -0.4 62
2019-05-13 07:00:00 7.3 15 Norte 22 Noroeste 0 971 -0.8 67
2019-05-13 06:00:00 7.9 16 Noroeste 24 Noroeste 0 971.3 -0.7 65
2019-05-13 05:00:00 8 15 Norte 22 Noroeste 0 971.5 -0.9 68
2019-05-13 04:00:00 9.1 15 Norte 24 Norte 0 971.8 -0.8 66
2019-05-13 03:00:00 9.7 15 Norte 26 Noroeste 0 972 -0.7 64
2019-05-13 02:00:00 10 18 Norte 28 Noroeste 0 972.4 -0.5 67
2019-05-13 01:00:00 10.4 18 Noroeste 28 Noroeste 0 972.6 -0.2 69
2019-05-13 00:00:00 10.7 19 Noroeste 28 Noroeste 0 972.7 0.1 70
2019-05-12 23:00:00 11 19 Noroeste 33 Norte 0 972.9 0.4 66
2019-05-12 22:00:00 11.7 23 Noroeste 37 Noroeste 0 972.8 0.2 61
2019-05-12 21:00:00 13 28 Noroeste 42 Norte 0 972.6 0 60
2019-05-12 20:00:00 14.8 30 Norte 42 Noroeste 0 972.5 -0.2 59
2019-05-12 19:00:00 16.3 27 Norte 46 Norte 0 972.6 -0.4 55
2019-05-12 18:00:00 17.5 32 Norte 45 Norte 0 972.6 -0.8 51
2019-05-12 17:00:00 18.4 32 Norte 48 Norte 0 972.7 -0.9 45
2019-05-12 16:00:00 18.6 30 Norte 48 Norte 0 973 -1 43
2019-05-12 15:00:00 18.1 22 Norte 46 Nordeste 0 973.4 -1 43
2019-05-12 14:00:00 17.1 30 Nordeste 46 Nordeste 0 973.6 -1 43
2019-05-12 13:00:00 16 29 Nordeste 48 Norte 0 974 -0.8 46
2019-05-12 12:00:00 15.1 30 Norte 45 Norte 0 974.4 -0.7 50
2019-05-12 11:00:00 14.2 24 Norte 41 Nordeste 0 974.6 -0.4 54
2019-05-12 10:00:00 12.9 18 Norte 35 Nordeste 0 974.8 -0.4 60
2019-05-12 09:00:00 10.9 19 Norte 30 Norte 0 975.1 -- 70
2019-05-12 08:00:00 8.7 14 Norte 22 Norte 0 975 -- 78
2019-05-12 07:00:00 6.5 7 Oeste -- -- -- 975.2 0.4 83
2019-05-12 06:00:00 -- -- -- -- -- -- -- -- --
2019-05-12 05:00:00 -- -- -- -- -- -- -- -- --
2019-05-12 04:00:00 7.5 16 Norte 22 Norte 0 974.8 -0.7 82
2019-05-12 03:00:00 7.8 13 Norte 26 Norte 0 975.2 -0.1 80
2019-05-12 02:00:00 8.1 18 Norte 28 Norte 0 975.4 0.2 81
2019-05-12 01:00:00 8.5 18 Norte 28 Norte 0 975.5 0.7 82
2019-05-12 00:00:00 8.7 15 Norte 21 Norte 0 975.3 1.2 81
2019-05-11 23:00:00 9.1 15 Norte 26 Norte 0 975.2 1.7 78
2019-05-11 22:00:00 10.1 18 Norte 37 Norte 0 974.8 1.7 70
2019-05-11 21:00:00 11.7 27 Norte 45 Norte 0 974.1 1.7 60
2019-05-11 20:00:00 13.3 26 Norte 48 Norte 0 973.5 1.1 55
2019-05-11 19:00:00 14.5 33 Norte 52 Norte 0 973.1 1 42
2019-05-11 18:00:00 15.3 26 Norte 39 Noroeste 0 972.4 0.7 50
2019-05-11 17:00:00 16.2 25 Norte 41 Noroeste 0 972.4 0.7 51
2019-05-11 16:00:00 17.2 32 Noroeste 45 Noroeste 0 972.1 0.5 50
2019-05-11 15:00:00 17.4 29 Noroeste 45 Norte 0 971.7 0.4 51
2019-05-11 14:00:00 15 23 Norte 41 Noroeste 0 971.7 0.6 57
2019-05-11 13:00:00 15.7 28 Noroeste 41 Norte 0 971.6 1.2 56
2019-05-11 12:00:00 14.3 20 Norte 35 Noroeste 0 971.3 1.7 60
2019-05-11 11:00:00 13.3 18 Noroeste 35 Norte 0 971.1 2.2 66
2019-05-11 10:00:00 12.7 16 Noroeste 28 Noroeste 0 970.4 2.4 69
2019-05-11 09:00:00 12.1 18 Norte 30 Noroeste 0 969.6 2.2 71
2019-05-11 08:00:00 11.5 16 Noroeste 24 Norte 0 968.9 1.9 82
2019-05-11 07:00:00 10.7 5 Oeste 18 Norte 0 968 1.7 83
2019-05-11 06:00:00 11 13 Norte 24 Norte 0 967.4 1.3 81
2019-05-11 05:00:00 12.1 15 Norte 30 Norte 0 967 1.1 77
2019-05-11 04:00:00 12.2 15 Norte 24 Norte 0 966.3 0.7 79
2019-05-11 03:00:00 13.3 17 Norte 28 Norte 0 966.1 0.9 80
2019-05-11 02:00:00 13.8 13 Norte 24 Norte 0 965.9 1.4 80
2019-05-11 01:00:00 14 14 Norte 28 Norte 0 965.6 2.7 79
2019-05-11 00:00:00 14 16 Norte 37 Norte 0 965.2 3.9 81
2019-05-10 23:00:00 14.7 18 Norte 39 Norte 0 964.5 3.9 79
2019-05-10 22:00:00 14.9 25 Norte 41 Norte 0 962.9 2.3 79
2019-05-10 21:00:00 18 5 Nordeste 18 Norte 0 961.3 1 72
2019-05-10 20:00:00 20.8 15 Noroeste 22 Noroeste 0 960.6 0.9 63
2019-05-10 19:00:00 21.7 15 Norte 30 Oeste 0 960.6 0.8 53
2019-05-10 18:00:00 24 20 Oeste 37 Oeste 0 960.3 0.5 43
2019-05-10 17:00:00 25.1 18 Sudoeste 33 Sudoeste 0 959.7 -0.4 46
2019-05-10 16:00:00 22.6 16 Sur 24 Sur 0 959.8 -0.6 58
2019-05-10 15:00:00 22 13 Sur 24 Sur 0 959.8 -0.6 59
2019-05-10 14:00:00 21.8 12 Sur 28 Sudoeste 0 960.1 -0.2 61
2019-05-10 13:00:00 21.7 12 Sudoeste 21 Sudoeste 0 960.4 0.3 60
2019-05-10 12:00:00 20.1 8 Sur 18 Sur 0 960.4 0.7 70
2019-05-10 11:00:00 17.2 5 Sudeste 9 Sudeste 0 960.3 0.9 81
2019-05-10 10:00:00 16 2 Sur 9 Sudeste 0 960.1 1 81
2019-05-10 09:00:00 14.2 2 Norte 9 Nordeste 0 959.7 0.6 89
2019-05-10 08:00:00 11.7 0 Calma 5 Norte 0 959.4 0.2 97
2019-05-10 07:00:00 11.1 0 Calma 5 Oeste 0.8 959.1 -0.2 98
2019-05-10 06:00:00 10.8 4 Noroeste 9 Oeste 0.9 959.1 -0.1 98
2019-05-10 05:00:00 10.9 7 Oeste 11 Oeste 1 959.2 -0.3 97
2019-05-10 04:00:00 10.8 7 Oeste 9 Oeste 0.7 959.3 -0.2 97
2019-05-10 03:00:00 11 0 Calma 8 Oeste 2.3 959.2 -0.5 97
2019-05-10 02:00:00 10.8 5 Oeste 22 Sur 1.1 959.5 0.4 97
2019-05-10 01:00:00 10.8 12 Sur 22 Sur 4.2 959.5 1.2 96
2019-05-10 00:00:00 10.8 9 Nordeste 18 Oeste 3.7 959.7 1.5 96
2019-05-09 23:00:00 11 8 Oeste 18 Noroeste 0.4 959.1 0.9 93
2019-05-09 22:00:00 11.7 9 Noroeste 11 Noroeste 0.2 958.3 0 91
2019-05-09 21:00:00 12.1 0 Calma 9 Oeste 1 958.2 -0.4 85
2019-05-09 20:00:00 13.4 5 Oeste 9 Noroeste 0.1 958.2 -0.2 79
2019-05-09 19:00:00 14 3 Oeste 17 Norte 0.2 958.3 -0.7 73
2019-05-09 18:00:00 15 4 Noroeste 26 Oeste 0.2 958.6 -0.5 71
2019-05-09 17:00:00 17.9 12 Sudoeste 22 Oeste 0 958.4 -1 39
2019-05-09 16:00:00 18.6 14 Oeste 30 Oeste 0 959 -1 35
2019-05-09 15:00:00 19.9 23 Oeste 45 Oeste 0 959.1 -1.1 30
2019-05-09 14:00:00 19 20 Sudoeste 32 Oeste 0 959.4 -0.9 32
2019-05-09 13:00:00 18.2 14 Oeste 26 Oeste 0 960 -0.3 36
2019-05-09 12:00:00 16.5 4 Sur 17 Nordeste 0 960.2 0.4 44
2019-05-09 11:00:00 15.2 7 Norte 13 Nordeste 0 960.3 0.7 48
2019-05-09 10:00:00 13.2 3 Norte 13 Nordeste 0 960.3 1.2 52
2019-05-09 09:00:00 11.6 7 Nordeste 11 Nordeste 0 959.8 1 62
2019-05-09 08:00:00 8.3 2 Noroeste 9 Oeste 0 959.6 1.1 72
2019-05-09 07:00:00 6.2 8 Oeste 18 Oeste 0 959.1 1.1 75
2019-05-09 06:00:00 8 0 Calma 8 Sur 0 958.8 0.9 65
2019-05-09 05:00:00 9.2 3 Sudoeste 21 Noroeste 0 958.5 0.7 59
2019-05-09 04:00:00 10.1 16 Oeste 28 Oeste 0 958 0.8 57
2019-05-09 03:00:00 10.3 14 Oeste 18 Oeste 0 957.9 1.2 57
2019-05-09 02:00:00 11.9 6 Oeste 35 Oeste 0 957.8 1.5 50
2019-05-09 01:00:00 13.2 20 Oeste 33 Oeste 0 957.2 1.5 45
2019-05-09 00:00:00 14 21 Oeste 52 Oeste 0 956.7 1.9 40
2019-05-08 23:00:00 14.4 17 Oeste 33 Sudoeste 0 956.3 2.1 40
2019-05-08 22:00:00 15.7 19 Oeste 35 Oeste 0 955.7 1.8 36
2019-05-08 21:00:00 17.2 21 Oeste 50 Oeste 0 954.8 1.3 35
2019-05-08 20:00:00 19.7 31 Oeste 65 Oeste 0 954.2 0.4 28
2019-05-08 19:00:00 20.6 37 Oeste 59 Oeste 0 953.9 0 28
2019-05-08 18:00:00 21 37 Oeste 58 Oeste 0 953.5 -0.2 30
2019-05-08 17:00:00 19.9 29 Oeste 58 Oeste 0 953.8 0.6 36
2019-05-08 16:00:00 20.5 30 Oeste 52 Oeste 0 953.9 0 35
2019-05-08 15:00:00 20.2 14 Oeste 28 Sudoeste 0 953.7 -0.9 53
2019-05-08 14:00:00 19.6 12 Sur 37 Oeste 0.1 953.2 -1.6 63
2019-05-08 13:00:00 20 26 Sur 41 Sur 0 953.9 -0.8 56
2019-05-08 12:00:00 19.4 27 Sur 39 Sur 0 954.6 -0.8 59
2019-05-08 11:00:00 18.2 28 Sur 45 Sur 0 954.8 -0.5 62
2019-05-08 10:00:00 17.2 24 Sur 41 Sur 0 954.7 -0.6 66
2019-05-08 09:00:00 16.5 20 Sur 30 Sur 0 955.4 -0.7 64
2019-05-08 08:00:00 15 16 Sur 22 Sur 0 955.3 -1.5 68
2019-05-08 07:00:00 14.6 17 Sur 26 Sur 0 955.3 -1.8 72
2019-05-08 06:00:00 15.1 15 Sur 21 Sur 0 956.1 -1.1 64
2019-05-08 05:00:00 16.5 11 Sudoeste 26 Sudoeste 0 956.8 0 55
2019-05-08 04:00:00 16.7 9 Oeste 22 Sudoeste 0 957.1 0 56
2019-05-08 03:00:00 17.7 22 Oeste 37 Sudoeste 0 957.2 -0.4 57
2019-05-08 02:00:00 19 22 Sur 30 Sur 0 956.8 -1.1 52
2019-05-08 01:00:00 18.9 19 Sur 28 Sudoeste 0 957.1 -1.2 50
2019-05-08 00:00:00 16.4 6 Este 13 Sur 0 957.6 -0.9 65
2019-05-07 23:00:00 16.4 6 Este 13 Sudeste 0 957.9 -0.7 68
2019-05-07 22:00:00 17.7 7 Este 11 Sudeste 0 958.3 -0.6 62
2019-05-07 21:00:00 19.5 0 Calma 9 Oeste 0 958.5 -0.7 52
2019-05-07 20:00:00 21 4 Oeste 13 Oeste 0 958.6 -1.1 47
2019-05-07 19:00:00 21.6 9 Sudoeste 17 Sur 0 958.9 -1.3 44
2019-05-07 18:00:00 22.5 14 Sur 26 Sudoeste 0 959.2 -1.4 41
2019-05-07 17:00:00 23.9 13 Sudoeste 28 Sudoeste 0 959.7 -1.8 38
2019-05-07 16:00:00 23.3 21 Sur 30 Sur 0 960.2 -2 37
2019-05-07 15:00:00 23.5 14 Sudoeste 24 Sudoeste 0 960.6 -2.4 35
2019-05-07 14:00:00 21 3 Sur 13 Nordeste 0 961.5 -1.8 39
2019-05-07 13:00:00 18.4 6 Nordeste 13 Este 0 962.2 -1.4 44
2019-05-07 12:00:00 16.2 3 Nordeste 13 Oeste 0 963 -0.9 46
2019-05-07 11:00:00 14.6 2 Norte 8 Nordeste 0 963.3 -0.4 51
2019-05-07 10:00:00 11.4 2 Este 8 Sur 0 963.6 0.2 63
2019-05-07 09:00:00 8.8 0 Calma 5 Sudeste 0 963.9 0.3 72
2019-05-07 08:00:00 5.6 0 Calma 5 Este 0 963.7 0 88
2019-05-07 07:00:00 5 2 Sudeste 5 Sudeste 0 963.4 -1 84
2019-05-07 06:00:00 4.3 0 Calma 5 Sudoeste 0 963.6 -0.9 86
2019-05-07 05:00:00 5.2 5 Sudeste 13 Sudeste 0 963.7 -0.4 83
2019-05-07 04:00:00 6.1 6 Sudeste 8 Este 0 964.4 0.2 79
2019-05-07 03:00:00 7.1 0 Calma 8 Este 0 964.5 0.1 73
2019-05-07 02:00:00 7.8 0 Calma 9 Este 0 964.1 -0.3 74
2019-05-07 01:00:00 9.3 5 Nordeste 9 Este 0 964.2 0.1 67
2019-05-07 00:00:00 9.9 6 Sudeste 13 Sur 0 964.4 0.7 67
2019-05-06 23:00:00 11.6 3 Sudeste 9 Sudeste 0 964.4 1.6 59
2019-05-06 22:00:00 14.1 6 Nordeste 17 Norte 0 964.1 1.3 47
2019-05-06 21:00:00 16.5 11 Norte 24 Norte 0 963.7 0.8 40
2019-05-06 20:00:00 19.8 13 Norte 21 Nordeste 0 962.8 -0.5 30
2019-05-06 19:00:00 21 13 Nordeste 24 Nordeste 0 962.8 -1.1 22
2019-05-06 18:00:00 21.3 8 Norte 17 Norte 0 962.9 -1.7 25
2019-05-06 17:00:00 21.7 8 Oeste 17 Sudoeste 0 963.3 -1.7 22
2019-05-06 16:00:00 20.1 6 Noroeste 18 Oeste 0 963.9 -1.7 23
2019-05-06 15:00:00 19.3 5 Oeste 18 Norte 0 964.6 -1.5 21
2019-05-06 14:00:00 18.2 5 Oeste 11 Sudoeste 0 965 -1.4 20
2019-05-06 13:00:00 15.8 5 Sur 13 Sur 0 965.6 -1.1 26
2019-05-06 12:00:00 13.8 5 Sudeste 15 Sur 0 966.1 -0.7 36
2019-05-06 11:00:00 11.7 4 Este 9 Este 0 966.4 -0.3 44
2019-05-06 10:00:00 8.9 3 Este 9 Este 0 966.7 0.2 52
2019-05-06 09:00:00 6.2 3 Este 8 Este 0 966.8 0.3 66
2019-05-06 08:00:00 2.6 4 Este 9 Sudeste 0 966.7 -0.1 85
2019-05-06 07:00:00 0.2 6 Sudeste 8 Sudeste 0 966.5 -0.2 87
2019-05-06 06:00:00 2 7 Norte 11 Noroeste 0 966.5 -0.2 81
2019-05-06 05:00:00 1.9 3 Oeste 15 Noroeste 0 966.8 0 83
2019-05-06 04:00:00 2.7 5 Oeste 13 Noroeste 0 966.7 -0.5 83
2019-05-06 03:00:00 3.4 8 Norte 15 Noroeste 0 966.7 -0.8 83
2019-05-06 02:00:00 3.8 10 Noroeste 21 Norte 0 966.8 -1.1 84
2019-05-06 01:00:00 4.6 17 Noroeste 22 Noroeste 0 967.2 -0.4 82
2019-05-06 00:00:00 5 15 Noroeste 21 Noroeste 0 967.5 0.6 80
2019-05-05 23:00:00 5.8 12 Noroeste 24 Norte 0 967.9 1.3 77
2019-05-05 22:00:00 6.7 16 Noroeste 30 Noroeste 0 967.6 1.1 71
2019-05-05 21:00:00 8.2 19 Noroeste 32 Nordeste 0 966.9 0.5 63
2019-05-05 20:00:00 9.9 27 Norte 46 Nordeste 0 966.6 0.2 45
2019-05-05 19:00:00 11.2 30 Nordeste 50 Nordeste 0 966.5 -0.4 38
2019-05-05 18:00:00 12 31 Nordeste 52 Nordeste 0 966.4 -0.8 36
2019-05-05 17:00:00 12.4 31 Nordeste 52 Nordeste 0 966.4 -1 32
2019-05-05 16:00:00 12.2 35 Nordeste 50 Norte 0 966.9 -0.8 32
2019-05-05 15:00:00 12.2 26 Norte 50 Norte 0 967.2 -0.9 33
2019-05-05 14:00:00 11.3 28 Norte 50 Norte 0 967.4 -0.4 34
2019-05-05 13:00:00 10.4 35 Norte 48 Norte 0 967.7 -0.1 37
2019-05-05 12:00:00 9.2 31 Norte 48 Norte 0 968.1 0.4 40
2019-05-05 11:00:00 8 29 Nordeste 46 Norte 0 967.8 0.4 46
2019-05-05 10:00:00 6.9 26 Nordeste 37 Nordeste 0 967.8 1 53
2019-05-05 09:00:00 5.2 20 Norte 37 Norte 0 967.7 1.1 66
2019-05-05 08:00:00 3.4 26 Norte 37 Noroeste 0 967.4 0.7 76
2019-05-05 07:00:00 2 27 Norte 35 Norte 0 966.8 0.2 82
2019-05-05 06:00:00 2 23 Norte 30 Noroeste 0 966.6 0.1 82
2019-05-05 05:00:00 2.4 19 Noroeste 28 Norte 0 966.7 0.5 81
2019-05-05 04:00:00 3.3 21 Norte 33 Norte 0 966.6 0.7 82
2019-05-05 03:00:00 5.1 14 Norte 48 Nordeste 0 966.5 1 75
2019-05-05 02:00:00 6.5 31 Norte 52 Norte 0.1 966.2 0.7 72
2019-05-05 01:00:00 6.9 22 Norte 48 Norte 0.1 965.9 1.4 78
2019-05-05 00:00:00 7.4 13 Noroeste 28 Norte 0.1 965.5 2.2 88
2019-05-04 23:00:00 8.1 21 Norte 35 Norte 0.1 965.5 2.7 83
2019-05-04 22:00:00 9 25 Norte 50 Noroeste 0 964.5 1.8 80
2019-05-04 21:00:00 9.5 31 Noroeste 42 Norte 0 963.3 0.8 84
2019-05-04 20:00:00 11.2 23 Norte 50 Norte 0 962.8 0.5 68
2019-05-04 19:00:00 12.7 27 Norte 41 Norte 0 962.7 0.3 56
2019-05-04 18:00:00 12.7 29 Norte 42 Norte 0 962.5 0.2 53
2019-05-04 17:00:00 13.8 27 Norte 41 Norte 0 962.3 -0.2 48
2019-05-04 16:00:00 13.6 24 Norte 39 Norte 0 962.4 -0.1 52
2019-05-04 15:00:00 14.3 22 Noroeste 37 Noroeste 0 962.3 -0.4 55
2019-05-04 14:00:00 12.1 21 Noroeste 37 Noroeste 0 962.5 -0.1 63
2019-05-04 13:00:00 11.4 19 Noroeste 33 Noroeste 0 962.5 -0.2 69
2019-05-04 12:00:00 12.4 19 Norte 33 Noroeste 0 962.7 0.2 61
2019-05-04 11:00:00 11.2 16 Noroeste 28 Norte 0 962.6 0.4 67
2019-05-04 10:00:00 9.7 17 Noroeste 22 Noroeste 0 962.7 0.7 75
2019-05-04 09:00:00 8.6 13 Noroeste 17 Noroeste 0 962.5 0.7 76
2019-05-04 08:00:00 7.1 7 Noroeste 21 Norte 0 962.2 0.3 82
2019-05-04 07:00:00 6.1 11 Noroeste 22 Norte 0 962 -0.4 84
2019-05-04 06:00:00 7.6 10 Norte 24 Norte 0 961.8 -0.9 82
2019-05-04 05:00:00 7.9 18 Noroeste 24 Norte 0 961.9 -1.2 83
2019-05-04 04:00:00 7.5 12 Noroeste 21 Noroeste 0 962.4 -0.9 84
2019-05-04 03:00:00 7.5 14 Noroeste 21 Noroeste 0 962.7 -0.7 83
2019-05-04 02:00:00 7.9 11 Oeste 15 Oeste 0 963.1 -0.3 82
2019-05-04 01:00:00 7.6 8 Norte 18 Noroeste 0 963.3 0.3 85
2019-05-04 00:00:00 7.9 13 Noroeste 30 Noroeste 0 963.4 0.8 84
2019-05-03 23:00:00 8.2 14 Noroeste 28 Noroeste 0 963.4 1.2 82
2019-05-03 22:00:00 8.7 19 Noroeste 30 Noroeste 0 963 1 78
2019-05-03 21:00:00 8.7 17 Norte 32 Norte 0 962.6 1.1 72
2019-05-03 20:00:00 10 27 Norte 41 Norte 0 962.2 1.1 65
2019-05-03 19:00:00 10.3 33 Norte 48 Norte 0 962 0.8 64
2019-05-03 18:00:00 10.3 26 Noroeste 42 Norte 0 961.5 0.1 76
2019-05-03 17:00:00 12.2 28 Norte 42 Norte 0 961.1 -0.5 64
2019-05-03 16:00:00 12.5 26 Norte 45 Norte 0 961.2 -0.6 64
2019-05-03 15:00:00 11.5 25 Norte 37 Norte 0.1 961.4 -0.6 72
2019-05-03 14:00:00 11.6 25 Noroeste 39 Norte 0 961.6 -0.6 69
2019-05-03 13:00:00 9.5 17 Norte 28 Norte 0 961.8 -0.6 77
2019-05-03 12:00:00 9.3 14 Norte 22 Norte 0 962 -0.2 83
2019-05-03 11:00:00 7.8 13 Noroeste 18 Noroeste 0 962.2 0.2 88
2019-05-03 10:00:00 7.1 10 Noroeste 13 Noroeste 0.4 962.4 1 88
2019-05-03 09:00:00 6.8 8 Norte 28 Norte 0.5 962.2 0.6 86
2019-05-03 08:00:00 7.8 17 Norte 28 Norte 0 962 0.2 79
2019-05-03 07:00:00 8.3 15 Norte 24 Norte 0 961.4 -1 77
2019-05-03 06:00:00 8.5 10 Norte 15 Norte 0 961.6 -1.5 79
2019-05-03 05:00:00 8.4 10 Norte 22 Noroeste 0 961.8 -2 83
2019-05-03 04:00:00 8.8 12 Noroeste 22 Noroeste 0 962.4 -1.9 81
2019-05-03 03:00:00 8.5 8 Noroeste 15 Norte 0 963.1 -1.5 79
2019-05-03 02:00:00 8.8 10 Noroeste 15 Noroeste 0 963.8 -1.1 79
2019-05-03 01:00:00 8.8 9 Noroeste 18 Norte 0 964.3 -0.4 78
2019-05-03 00:00:00 8.1 5 Noroeste 13 Norte 0 964.6 0.3 79
2019-05-02 23:00:00 8.3 9 Noroeste 18 Norte 0 964.9 0.9 77
2019-05-02 22:00:00 9.2 13 Norte 28 Norte 0 964.7 1.1 71
2019-05-02 21:00:00 10.1 22 Norte 41 Norte 0 964.3 0.5 64
2019-05-02 20:00:00 11.5 32 Norte 45 Norte 0 964 -0.3 55
2019-05-02 19:00:00 12.8 29 Norte 42 Norte 0 963.6 -1.1 51
2019-05-02 18:00:00 12.8 27 Norte 41 Norte 0 963.8 -1.1 57
2019-05-02 17:00:00 12.7 22 Norte 41 Norte 0 964.3 -1.1 61
2019-05-02 16:00:00 13.6 30 Norte 42 Norte 0 964.7 -1 61
2019-05-02 15:00:00 14.9 26 Norte 35 Norte 0 964.9 -0.8 57
2019-05-02 14:00:00 13.6 22 Norte 33 Norte 0 965.4 -0.3 61
2019-05-02 13:00:00 13.7 23 Norte 41 Norte 0 965.7 -0.1 62
2019-05-02 12:00:00 12.9 24 Norte 35 Norte 0 965.7 0.1 64
2019-05-02 11:00:00 12.4 22 Norte 30 Norte 0 965.7 0.1 67
2019-05-02 10:00:00 12 14 Noroeste 22 Noroeste 0 965.8 0.9 74
2019-05-02 09:00:00 10 13 Noroeste 18 Noroeste 0 965.6 0.9 79
2019-05-02 08:00:00 8.3 7 Noroeste 24 Norte 0 965.6 0.8 83
2019-05-02 07:00:00 8 12 Norte 22 Norte 0 964.9 0 84
2019-05-02 06:00:00 8.7 12 Noroeste 18 Noroeste 0 964.7 -0.3 82
2019-05-02 05:00:00 9 13 Noroeste 21 Noroeste 0 964.8 -0.6 82
2019-05-02 04:00:00 9.3 12 Noroeste 21 Norte 0 964.9 -0.6 80
2019-05-02 03:00:00 8.6 11 Noroeste 21 Norte 0 965 -0.4 82
2019-05-02 02:00:00 9.3 12 Norte 15 Norte 0 965.4 0.2 80
2019-05-02 01:00:00 9.4 10 Noroeste 22 Norte 0 965.5 1 77
2019-05-02 00:00:00 10.3 14 Norte 22 Norte 0 965.4 1.6 76
2019-05-01 23:00:00 10.4 12 Norte 28 Norte 0 965.2 2.2 75
2019-05-01 22:00:00 10.6 18 Norte 37 Norte 0 964.5 2.2 75
2019-05-01 21:00:00 11.8 25 Norte 45 Norte 0 963.8 1.7 68
2019-05-01 20:00:00 13 33 Norte 50 Norte 0 963 1.7 65
2019-05-01 19:00:00 15 27 Norte 45 Norte 0 962.3 1.4 60
2019-05-01 18:00:00 16.3 31 Norte -- -- -- 962.1 1 58
2019-05-01 17:00:00 18.3 31 Norte 45 Norte 0 961.3 -0.3 52
2019-05-01 16:00:00 21.4 26 Norte 35 Noroeste 0 960.9 -1.3 39
2019-05-01 15:00:00 21.5 5 Noroeste 15 Sur 0 961.1 -1.7 38
2019-05-01 14:00:00 20.2 7 Oeste 15 Sudoeste 0 961.6 -1.4 39
2019-05-01 13:00:00 19.3 6 Oeste 13 Noroeste 0 962.2 -0.9 43
2019-05-01 12:00:00 17.4 5 Noroeste 13 Norte 0 962.8 -0.4 45
2019-05-01 11:00:00 15 5 Noroeste 9 Norte 0 963 0 53
2019-05-01 10:00:00 12.1 0 Calma 8 Este 0 963.1 0.5 60
2019-05-01 09:00:00 8.8 3 Nordeste 8 Sudeste 0 963.2 0.8 72
2019-05-01 08:00:00 5.4 2 Este 13 Sur 0 963 0.6 85
2019-05-01 07:00:00 3.6 4 Sur 11 Sur 0 962.6 0.2 87
2019-05-01 06:00:00 3.9 4 Sur 11 Sudeste 0 962.4 -0.6 87
2019-05-01 05:00:00 4.7 6 Este 11 Sudeste 0 962.4 -1.3 87
2019-05-01 04:00:00 5.8 7 Sudeste 9 Sudeste 0 962.4 -1.4 84
2019-05-01 03:00:00 6.6 3 Sur 11 Noroeste 0 963 -1 79
2019-05-01 02:00:00 9.1 6 Noroeste 18 Norte 0 963.7 -0.7 66
2019-05-01 01:00:00 9.2 17 Norte 21 Norte 0 963.8 -0.5 71
2019-05-01 00:00:00 8.9 10 Oeste 18 Noroeste 0 964 0.2 77
2019-04-30 23:00:00 11 16 Noroeste 24 Noroeste 0 964.4 1.1 68
2019-04-30 22:00:00 12.4 13 Noroeste 32 Norte 0 964.3 0.9 65
2019-04-30 21:00:00 14.1 26 Norte 33 Norte 0 963.8 0.5 55
2019-04-30 20:00:00 16.4 23 Norte 33 Norte 0 963.3 -0.3 50
2019-04-30 19:00:00 18 26 Norte 37 Noroeste 0 963.4 -0.5 41
2019-04-30 18:00:00 19.2 27 Norte 41 Norte 0 963.3 -1 36
2019-04-30 17:00:00 20.3 30 Norte 39 Norte 0 963.6 -1 34
2019-04-30 16:00:00 20.4 27 Norte 37 Norte 0 963.9 -1.3 33
2019-04-30 15:00:00 20.4 23 Norte 37 Noroeste 0 964.3 -1.3 37
2019-04-30 14:00:00 20.1 25 Norte 35 Noroeste 0 964.6 -1.1 38
2019-04-30 13:00:00 19.3 22 Noroeste 32 Norte 0 965.2 -0.6 41
2019-04-30 12:00:00 18 20 Norte 32 Norte 0 965.6 -0.1 44
2019-04-30 11:00:00 16.7 19 Noroeste 28 Norte 0 965.7 0.3 52
2019-04-30 10:00:00 14.7 14 Norte 21 Norte 0 965.8 0.6 61
2019-04-30 09:00:00 10.5 5 Oeste 8 Oeste 0 965.7 0.6 77
2019-04-30 08:00:00 6.6 4 Sur 8 Sur 0 965.4 0.4 91
2019-04-30 07:00:00 4.7 2 Este 9 Sudeste 0 965.2 0 92
2019-04-30 06:00:00 5.8 2 Sudeste 8 Sudeste 0 965.1 -0.5 94
2019-04-30 05:00:00 6.6 5 Noroeste 9 Norte 0 965 -1 91
2019-04-30 04:00:00 7.8 6 Noroeste 15 Oeste 0 965.2 -0.7 90
2019-04-30 03:00:00 8.4 10 Oeste 17 Oeste 0 965.6 -0.3 87
2019-04-30 02:00:00 9.2 8 Noroeste 13 Noroeste 0 966 0.3 85
2019-04-30 01:00:00 10.1 6 Noroeste 11 Noroeste 0 965.9 0.7 82
2019-04-30 00:00:00 9.9 12 Noroeste 17 Norte 0 965.9 1.4 84
2019-04-29 23:00:00 11.4 10 Norte 21 Norte 0 965.7 1.7 79
2019-04-29 22:00:00 13.2 6 Norte 18 Nordeste 0 965.2 1.4 70
2019-04-29 21:00:00 15 7 Nordeste 30 Norte 0 964.5 0.7 62
2019-04-29 20:00:00 17.3 19 Norte 35 Norte 0 964 0.1 51
2019-04-29 19:00:00 18.8 24 Norte 33 Nordeste 0 963.8 -0.5 48
2019-04-29 18:00:00 19.7 23 Nordeste 33 Nordeste 0 963.8 -1 46
2019-04-29 17:00:00 20.5 19 Norte 30 Norte 0 963.9 -1.5 43
2019-04-29 16:00:00 19.1 22 Noroeste 32 Norte 0 964.3 -2 40
2019-04-29 15:00:00 21 22 Norte 33 Noroeste 0 964.8 -2 42
2019-04-29 14:00:00 20.3 17 Noroeste 28 Norte 0 965.4 -2 46
2019-04-29 13:00:00 19 10 Norte 21 Norte 0 966.3 -1.7 48
2019-04-29 12:00:00 16.7 7 Noroeste 17 Noroeste 0 966.8 -1.5 55
2019-04-29 11:00:00 14.2 10 Noroeste 18 Norte 0 967.4 -0.9 61
2019-04-29 10:00:00 11.4 3 Noroeste 9 Nordeste 0 968 0.3 71
2019-04-29 09:00:00 9.1 5 Sudeste 9 Sudeste 0 968.3 0.8 78
2019-04-29 08:00:00 5.5 5 Sur 8 Sur 0 968.3 0.5 91
2019-04-29 07:00:00 3.8 4 Sur 9 Sudeste 0 967.7 -0.6 93
2019-04-29 06:00:00 4.1 4 Sudeste 9 Sudeste 0 967.5 -1.4 93
2019-04-29 05:00:00 5.3 4 Norte 9 Noroeste 0 967.8 -1.7 90
2019-04-29 04:00:00 6.4 4 Norte 17 Norte 0 968.3 -1.4 87
2019-04-29 03:00:00 6.9 15 Norte 22 Noroeste 0 968.9 -1 86
2019-04-29 02:00:00 7.5 15 Noroeste 21 Noroeste 0 969.5 -0.5 84
2019-04-29 01:00:00 7.2 13 Noroeste 17 Norte 0 969.7 -0.4 85
2019-04-29 00:00:00 7.5 10 Norte 17 Noroeste 0 969.9 0.4 83
2019-04-28 23:00:00 8.6 10 Noroeste 15 Norte 0 970 1 79
2019-04-28 22:00:00 10 12 Norte 26 Norte 0 970.1 1.1 72
2019-04-28 21:00:00 11.8 17 Norte 37 Norte 0 969.5 0.7 64
2019-04-28 20:00:00 13.8 30 Norte 42 Norte 0 969 -0.2 55
2019-04-28 19:00:00 15.2 30 Norte 42 Norte 0 969 -0.8 52
2019-04-28 18:00:00 16.4 26 Norte 35 Norte 0 968.8 -1.5 48
2019-04-28 17:00:00 17 23 Norte 35 Norte 0 969.2 -1.7 46
2019-04-28 16:00:00 17.2 24 Norte 37 Norte 0 969.8 -2.1 43
2019-04-28 15:00:00 16.9 27 Norte 37 Norte 0 970.3 -1.9 43
2019-04-28 14:00:00 15.6 25 Norte 33 Noroeste 0 970.9 -1.6 47
2019-04-28 13:00:00 14.6 22 Norte 33 Norte 0 971.9 -1.1 50
2019-04-28 12:00:00 13.3 26 Noroeste 37 Noroeste 0 972.2 -1.2 53
2019-04-28 11:00:00 12.2 24 Norte 33 Norte 0 972.5 -1 56
2019-04-28 10:00:00 10.3 23 Norte 35 Norte 0 973 -0.2 61
2019-04-28 09:00:00 9.3 16 Norte 28 Norte 0 973.4 -0.1 66
2019-04-28 08:00:00 7.7 15 Norte 28 Norte 0 973.5 -0.5 75
2019-04-28 07:00:00 7.2 12 Norte -- -- 0 973.2 -1 84
2019-04-28 06:00:00 6.7 10 Norte 13 Norte 0 973.5 -1 84
2019-04-28 05:00:00 6.1 9 Noroeste 11 Norte 0 974 -0.8 87
2019-04-28 04:00:00 6.5 11 Noroeste 13 Noroeste 0 974.2 -0.9 86
2019-04-28 03:00:00 7.1 9 Noroeste 15 Noroeste 0 974.5 -0.9 84
2019-04-28 02:00:00 7.5 9 Noroeste 13 Noroeste 0 974.8 -0.5 84
2019-04-28 01:00:00 8 5 Oeste 13 Oeste 0 975.1 0 82
2019-04-28 00:00:00 9.1 8 Noroeste 26 Norte 0 975.4 0.9 76
2019-04-27 23:00:00 9.6 10 Norte 24 Norte 0 975.3 1.3 72
2019-04-27 22:00:00 10 15 Norte 32 Norte 0 975.1 1.3 71
2019-04-27 21:00:00 10.9 19 Norte 33 Norte 0 974.5 1.1 69
2019-04-27 20:00:00 12.7 22 Norte 39 Noroeste 0 974 0.4 65
2019-04-27 19:00:00 14.3 27 Norte 46 Norte 0 973.8 -0.1 58
2019-04-27 18:00:00 15.4 24 Norte 39 Norte 0 973.4 -0.6 59
2019-04-27 17:00:00 15.1 25 Norte 39 Norte 0 973.6 -0.5 59
2019-04-27 16:00:00 14.9 22 Norte 35 Norte 0 973.9 -0.4 63
2019-04-27 15:00:00 15.4 26 Norte 37 Norte 0 974 -0.2 61
2019-04-27 14:00:00 14.9 18 Norte 33 Norte 0 974.1 0 65
2019-04-27 13:00:00 14.8 21 Norte 33 Norte 0 974.3 0.2 64
2019-04-27 12:00:00 13.9 6 Noroeste 21 Noroeste 0 974.2 0.1 60
2019-04-27 11:00:00 11.5 2 Oeste 5 Norte 0 974.1 0.1 69
2019-04-27 10:00:00 9.6 0 Calma 9 Norte 0 974.1 0.5 76
2019-04-27 09:00:00 7.1 0 Calma -- -- 0 974.1 0.5 86
2019-04-27 08:00:00 4.7 0 Calma -- -- 0 974 0.3 93
2019-04-27 07:00:00 4.1 0 Calma 5 Sur 0 973.6 -0.1 94
2019-04-27 06:00:00 3.6 4 Sudeste 5 Sudeste 0 973.6 -0.4 93
2019-04-27 05:00:00 3.4 0 Calma 8 Sudeste 0 973.7 -0.1 91
2019-04-27 04:00:00 3.8 0 Calma 5 Sudeste 0 973.7 -0.3 90
2019-04-27 03:00:00 4.8 0 Calma 8 Sur 0 974 -0.2 86
2019-04-27 02:00:00 5.2 0 Calma -- -- 0 973.8 0 83
2019-04-27 01:00:00 6 4 Sur 8 Sur 0 974 0.8 81
2019-04-27 00:00:00 6.8 3 Este 13 Nordeste 0 974.2 1.6 76
2019-04-26 23:00:00 8.3 8 Nordeste 18 Nordeste 0 973.8 2 69
2019-04-26 22:00:00 8.3 14 Nordeste 30 Norte 0 973.2 1.8 69
2019-04-26 21:00:00 9.1 16 Norte 30 Norte 0 972.6 1.7 68
2019-04-26 20:00:00 10 21 Norte 33 Norte 0 971.8 1.4 69
2019-04-26 19:00:00 11.9 20 Norte 32 Norte 0 971.4 0.9 62
2019-04-26 18:00:00 12.7 22 Norte 33 Norte 0 970.9 0.3 62
2019-04-26 17:00:00 13.7 20 Nordeste 41 Norte 0 970.4 0.1 59
2019-04-26 16:00:00 13.8 20 Norte 35 Norte 0 970.5 0.3 57
2019-04-26 15:00:00 13.1 21 Norte 41 Noroeste 0 970.6 1 61
2019-04-26 14:00:00 13.2 17 Noroeste 30 Noroeste 0 970.3 1.3 61
2019-04-26 13:00:00 11.4 21 Norte 37 Norte 0 970.2 2.3 73
2019-04-26 12:00:00 11.6 10 Oeste 28 Noroeste 0 969.6 2.6 69
2019-04-26 11:00:00 10.4 9 Noroeste 21 Oeste 0.1 969 3.2 79
2019-04-26 10:00:00 9.5 6 Oeste 11 Oeste 0 967.9 3.2 80
2019-04-26 09:00:00 8.4 0 Calma 11 Nordeste 0 967 2.8 84
2019-04-26 08:00:00 7.8 3 Norte 9 Este 0 965.8 2.2 85
2019-04-26 07:00:00 7.6 4 Nordeste 8 Nordeste 0 964.7 1.5 84
2019-04-26 06:00:00 8 6 Sudoeste 24 Oeste 0.1 964.2 1.7 83
2019-04-26 05:00:00 8.8 9 Sudoeste 17 Sur 0 963.6 1.3 68
2019-04-26 04:00:00 8.8 13 Sudoeste 37 Sudoeste 0 963.2 1.5 66
2019-04-26 03:00:00 9.6 18 Sudoeste 32 Oeste 0 962.5 1.6 61
2019-04-26 02:00:00 9.7 21 Oeste 32 Oeste 0 962.3 2.3 58
2019-04-26 01:00:00 9.5 23 Oeste 30 Oeste 0 961.7 2.9 59
2019-04-26 00:00:00 9.4 16 Sudoeste 30 Oeste 0 960.9 2.9 58
2019-04-25 23:00:00 10.1 8 Sudoeste 28 Sudoeste 0 960 2.9 60
2019-04-25 22:00:00 9.3 14 Sur 21 Sudeste 0 958.8 2.4 69
2019-04-25 21:00:00 9.5 14 Sur 22 Sur 0 958 2.1 69
2019-04-25 20:00:00 13.3 9 Sudoeste 46 Oeste 0 957.1 1.2 48
2019-04-25 19:00:00 14.2 14 Sudoeste 32 Sur 0 956.4 1.1 42
2019-04-25 18:00:00 16.4 17 Sudoeste 33 Sudoeste 0 955.9 0.7 36
2019-04-25 17:00:00 15 18 Sudoeste 32 Sudoeste 0 955.9 0.8 43
2019-04-25 16:00:00 14.9 16 Sudoeste 41 Oeste 0 955.3 0.1 43
2019-04-25 15:00:00 16.2 25 Oeste 39 Sudoeste 0 955.2 0.1 38
2019-04-25 14:00:00 15.9 23 Sudoeste 37 Sur 0 955.1 0.7 44
2019-04-25 13:00:00 15.3 27 Sudoeste 41 Sudoeste 0 955.2 1.1 45
2019-04-25 12:00:00 13.9 32 Sudoeste 50 Sudoeste 0 955.1 1.4 49
2019-04-25 11:00:00 12.3 24 Sudoeste 39 Sur 0 954.4 1.6 56
2019-04-25 10:00:00 10.8 19 Sur 30 Sur 0 954.1 2.2 67
2019-04-25 09:00:00 8.5 7 Sudeste 15 Sudeste 0 953.7 2.6 78
2019-04-25 08:00:00 7.6 10 Sudeste 30 Sudeste 0 952.8 2.1 82
2019-04-25 07:00:00 6.4 5 Este 18 Sudoeste 0 951.9 2 88
2019-04-25 06:00:00 8.9 15 Sudoeste 46 Sudoeste 0 951.1 1.3 80
2019-04-25 05:00:00 9.8 24 Sudoeste 45 Sudoeste 0 950.7 0.9 78
2019-04-25 04:00:00 9.7 26 Sur 41 Sur 2.2 949.9 0.5 92
2019-04-25 03:00:00 10.3 25 Sur 41 Sudoeste 1.9 949.8 -0.1 88
2019-04-25 02:00:00 10.8 24 Sur 45 Sur 0.4 949.8 0.1 81
2019-04-25 01:00:00 10 21 Sur 28 Sur 0 949.4 -1.3 80
2019-04-25 00:00:00 9 10 Sur 35 Sur 0 949.9 2.2 85
2019-04-24 23:00:00 9.8 23 Sur 39 Sur 1.1 949.7 2.8 85
2019-04-24 22:00:00 10.3 32 Sudoeste 58 Sudoeste 7.1 950.7 3.2 85
2019-04-24 21:00:00 10.1 39 Sudeste 76 Sur 1.1 947.7 0 86
2019-04-24 20:00:00 10.4 46 Sudeste 74 Sudeste 0 946.9 -1.8 77
2019-04-24 19:00:00 10.8 44 Sudeste 68 Sudeste 0 947.5 -1.5 74
2019-04-24 18:00:00 10.8 42 Sudeste 68 Sudeste 0 947.7 -2.2 68
2019-04-24 17:00:00 10.9 33 Sudeste 68 Sudeste 0 948.7 -1.4 65
2019-04-24 16:00:00 10.4 42 Sudeste 71 Sudeste 0 949 -1.4 65
2019-04-24 15:00:00 10 37 Sudeste 59 Sudeste 0 949.9 -0.6 66
2019-04-24 14:00:00 9.6 35 Sudeste 65 Sur 0.1 950.1 0.2 69
2019-04-24 13:00:00 7.6 39 Sur 58 Sur 0.4 950.4 0.9 80
2019-04-24 12:00:00 7.8 33 Sur 63 Sur 0.4 950.5 1.7 76
2019-04-24 11:00:00 9.3 31 Sur 48 Sur 0 949.9 1.2 63
2019-04-24 10:00:00 9.1 26 Sur 50 Sur 0 949.5 1.1 66
2019-04-24 09:00:00 9.3 22 Sudeste 32 Sudeste 0 948.8 0.6 71
2019-04-24 08:00:00 6.8 14 Sudeste 21 Sudeste 0 948.7 0.5 83
2019-04-24 07:00:00 6.1 13 Sur 24 Sur 0 948.4 0.5 84
2019-04-24 06:00:00 6.9 12 Sur 18 Sur 0 948.2 0.3 84
2019-04-24 05:00:00 7.8 13 Sudoeste 21 Sudoeste 0 948.2 0.7 76
2019-04-24 04:00:00 7.8 10 Sudoeste 18 Sudoeste 0 947.9 0.8 80
2019-04-24 03:00:00 8.1 11 Sur 15 Sur 0 947.9 1.2 83
2019-04-24 02:00:00 8.2 13 Sur 18 Sur 0 947.5 1.5 87
2019-04-24 01:00:00 8.8 13 Sur 22 Sur 0 947.1 1.5 89
2019-04-24 00:00:00 9.3 9 Sur 17 Sur 0.1 946.7 2.1 82
2019-04-23 23:00:00 9.2 9 Sur 13 Sudeste 0 946 2.7 91
2019-04-23 22:00:00 9.4 11 Sudeste 21 Oeste 0 945.6 2.7 92
2019-04-23 21:00:00 10.4 15 Oeste 22 Oeste 0 944.6 1.8 81
2019-04-23 20:00:00 11 9 Sudoeste 28 Sur 2.1 943.3 0.6 87
2019-04-23 19:00:00 13.6 18 Sudeste 32 Sudeste 0 942.9 0 69
2019-04-23 18:00:00 14.9 19 Sur 33 Sur 0 942.8 0.2 60
2019-04-23 17:00:00 15.6 26 Sur 39 Sur 0 942.7 0.1 62
2019-04-23 16:00:00 14.3 27 Sur 42 Sur 0.5 942.9 -0.2 78
2019-04-23 15:00:00 14 14 Sudeste 45 Sudoeste 2.1 942.6 -0.7 79
2019-04-23 14:00:00 17.9 20 Sur 39 Sur 0 942.6 -0.6 48
2019-04-23 13:00:00 18.4 27 Sur 41 Sur 0 943.1 -0.3 46
2019-04-23 12:00:00 17.8 21 Sur 39 Sur 0 943.3 -0.1 49
2019-04-23 11:00:00 15.8 10 Este 24 Sudeste 0 943.2 -0.1 61
2019-04-23 10:00:00 14 9 Sur 15 Sur 0 943.4 0.1 69
2019-04-23 09:00:00 12.4 8 Norte 11 Norte 0 943.4 -0.2 76
2019-04-23 08:00:00 9.3 6 Oeste 9 Oeste 0 943.3 -0.5 83
2019-04-23 07:00:00 10.1 5 Oeste 21 Sudeste 0 943.3 -0.8 77
2019-04-23 06:00:00 11.7 10 Sur 26 Sudeste 0 943.6 -1.1 70
2019-04-23 05:00:00 12.2 17 Sudeste 24 Este 0 943.8 -1.5 67
2019-04-23 04:00:00 12.4 13 Sudeste 26 Sudeste 0 944.1 -1.3 66
2019-04-23 03:00:00 12.2 18 Sudeste 28 Sudeste 0 944.7 -0.9 67
2019-04-23 02:00:00 12.8 17 Sudeste 24 Este 0 945.3 -0.9 63
2019-04-23 01:00:00 11.7 3 Noroeste 33 Sur 0 945.4 -0.7 71
2019-04-23 00:00:00 13.8 21 Sur 35 Sur 0 945.6 -0.4 57